KDLN

Dillon Airport

Dillon, Montana, USA
METAR KDLN 201253Z AUTO 20008KT 10SM CLR M13/M14 A2992 RMK AO2 SLP201 T11331144 $
Observed Flight Rules
Jan-20 @ 12:53 UTC (20 minutes ago) Visual Flight Rules
Wind Visibility Clouds
200° at 8 knots 10 miles
  • Clear skies
Temperatures Readings
Current -13°C / 9°F
Dewpoint -14°C / 7°F
Humidity 92%
Altimeter 29.92" Hg
Pressure 1020.1 hPa
Elevation 1591
METAR KDLN 201253Z AUTO 20008KT 10SM CLR M13/M14 A2992 RMK AO2 SLP201 T11331144 $
Observed Flight Rules
Jan-20 @ 12:53 UTC
(20 minutes ago)
VFR
Wind Visibility
200° at 8 knots 10 miles
Clouds
  • Clear skies
Temperature Dewpoint
-13°C / 9°F -14°C / 7°F
Humidity Altimeter Pressure
92% 29.92" Hg 1020.1 hPa